Time;durP1;ratioP1;P1;durP2;ratioP2;P2;SDS_P1;SDS_P2;PMS_P1;PMS_P2;Temp;Humidity;BMP_temperature;BMP_pressure;BME280_temperature;BME280_humidity;BME280_pressure;Samples;Min_cycle;Max_cycle;Signal;HPM_P1;HPM_P2
2023/06/27 00:03:24;;;;;;;5.55;3.45;;;;;;;21.80;82.62;99262.38;10456892;28;20037;-68
2023/06/27 00:08:25;;;;;;;8.80;3.40;;;;;;;22.17;82.62;99331.72;10456194;28;20053;-68
2023/06/27 00:13:26;;;;;;;5.03;3.45;;;;;;;22.19;82.57;99331.44;10456056;28;20121;-71
2023/06/27 00:18:34;;;;;;;5.05;3.30;;;;;;;22.29;82.03;99350.38;10456644;28;20044;-68
2023/06/27 00:23:35;;;;;;;5.72;3.08;;;;;;;22.16;81.50;99334.63;10456087;28;20036;-68
2023/06/27 00:28:36;;;;;;;6.63;3.10;;;;;;;22.01;81.25;99314.59;10455119;28;20056;-68
2023/06/27 00:33:36;;;;;;;4.55;3.08;;;;;;;21.87;80.94;99287.28;10455723;28;20045;-68
2023/06/27 00:38:37;;;;;;;5.68;3.55;;;;;;;22.41;80.90;99363.66;10456039;28;20135;-68
2023/06/27 00:43:38;;;;;;;5.65;2.83;;;;;;;22.03;80.66;99298.13;10455307;28;20083;-68
2023/06/27 00:48:39;;;;;;;6.03;3.70;;;;;;;22.37;80.51;99374.19;10454687;28;20064;-68
2023/06/27 00:53:40;;;;;;;6.65;3.20;;;;;;;22.08;80.62;99333.28;10455097;28;20059;-69
2023/06/27 00:58:41;;;;;;;5.28;3.20;;;;;;;22.47;80.40;99408.59;10453963;28;20550;-71
2023/06/27 01:03:42;;;;;;;7.95;3.60;;;;;;;22.31;80.61;99418.53;10436502;28;20044;-69
2023/06/27 01:08:50;;;;;;;8.52;3.42;;;;;;;22.25;82.94;99458.31;10454025;28;20041;-68
2023/06/27 01:13:56;;;;;;;12.10;3.78;;;;;;;21.86;85.19;99455.16;10454984;28;20037;-65
2023/06/27 01:19:00;;;;;;;14.90;4.13;;;;;;;21.56;86.64;99463.94;10454119;28;20120;-65
2023/06/27 01:24:06;;;;;;;10.70;4.20;;;;;;;21.18;89.08;99452.34;10454165;28;20128;-65
2023/06/27 01:29:07;;;;;;;19.55;3.97;;;;;;;20.95;90.30;99451.63;10454287;28;20060;-65
2023/06/27 01:34:36;;;;;;;12.88;3.80;;;;;;;20.78;95.03;99469.81;10454123;28;20052;-66
2023/06/27 01:39:55;;;;;;;12.57;3.90;;;;;;;20.70;92.21;99459.47;10455879;28;20041;-66
2023/06/27 01:44:57;;;;;;;10.57;4.03;;;;;;;20.62;92.22;99435.69;10461937;28;20044;-66
2023/06/27 01:49:58;;;;;;;11.77;3.92;;;;;;;20.66;92.64;99426.00;10462125;28;20043;-67
2023/06/27 01:54:59;;;;;;;13.63;4.13;;;;;;;20.74;93.04;99456.03;10461879;28;20495;-66
2023/06/27 02:00:00;;;;;;;8.30;3.88;;;;;;;20.80;92.92;99435.28;10461646;28;20069;-66
2023/06/27 02:05:01;;;;;;;12.02;3.78;;;;;;;20.78;92.99;99425.81;10461863;28;20033;-67
2023/06/27 02:10:02;;;;;;;7.47;3.47;;;;;;;20.94;92.80;99450.00;10462166;28;20049;-66
2023/06/27 02:15:03;;;;;;;10.98;4.40;;;;;;;20.78;93.01;99437.44;10461188;28;20041;-66
2023/06/27 02:20:05;;;;;;;8.13;3.80;;;;;;;20.85;93.13;99456.09;10460256;28;20068;-67
2023/06/27 02:25:06;;;;;;;11.15;3.65;;;;;;;20.68;92.72;99456.25;10442105;28;20044;-67
2023/06/27 02:30:07;;;;;;;10.18;3.95;;;;;;;20.48;92.17;99454.94;10460980;28;20057;-67
2023/06/27 02:35:08;;;;;;;9.43;3.80;;;;;;;19.84;92.33;99363.94;10459594;28;20041;-67
2023/06/27 02:40:09;;;;;;;13.05;4.47;;;;;;;20.20;92.64;99410.16;10459275;28;20135;-67
2023/06/27 02:45:10;;;;;;;8.13;4.65;;;;;;;19.78;93.04;99329.13;10459555;28;20069;-66
2023/06/27 02:50:11;;;;;;;11.70;4.50;;;;;;;20.32;92.39;99409.19;10459545;28;20065;-67
2023/06/27 02:55:12;;;;;;;14.95;3.80;;;;;;;20.02;91.60;99335.03;10459713;28;20033;-67
2023/06/27 03:00:13;;;;;;;13.73;4.13;;;;;;;20.51;90.24;99437.44;10459197;28;20409;-67
2023/06/27 03:05:14;;;;;;;11.77;4.15;;;;;;;20.64;88.70;99455.94;10458688;28;20093;-68
2023/06/27 03:10:15;;;;;;;13.80;4.65;;;;;;;20.22;88.01;99391.00;10458891;28;20186;-70
2023/06/27 03:15:15;;;;;;;8.40;4.07;;;;;;;20.44;87.30;99456.53;10441233;28;20381;-67
2023/06/27 03:20:16;;;;;;;6.05;3.90;;;;;;;20.26;87.33;99449.59;10457903;28;20041;-67
2023/06/27 03:25:17;;;;;;;6.47;3.70;;;;;;;20.16;88.16;99433.31;10458272;28;20052;-68
2023/06/27 03:30:18;;;;;;;16.10;4.15;;;;;;;20.01;87.70;99401.59;10458289;28;20056;-66
2023/06/27 03:35:19;;;;;;;6.18;3.15;;;;;;;20.23;86.88;99406.97;10458415;28;20045;-68
2023/06/27 03:40:20;;;;;;;11.32;3.28;;;;;;;19.93;84.94;99340.06;10457288;28;20051;-68
2023/06/27 03:45:21;;;;;;;11.30;3.35;;;;;;;19.85;83.72;99329.72;10457573;28;20064;-67
2023/06/27 03:50:22;;;;;;;6.72;3.05;;;;;;;20.52;82.51;99415.63;10456903;28;20037;-68
2023/06/27 03:55:23;;;;;;;8.23;3.10;;;;;;;20.65;80.79;99408.19;10456637;28;20045;-68
2023/06/27 04:00:24;;;;;;;12.43;3.10;;;;;;;20.97;79.35;99419.78;10456273;28;20075;-68
2023/06/27 04:05:24;;;;;;;5.60;2.70;;;;;;;21.47;77.21;99381.75;10455393;28;20491;-68
2023/06/27 04:10:25;;;;;;;8.15;3.10;;;;;;;21.76;75.74;99387.56;10456241;28;20051;-68
2023/06/27 04:15:26;;;;;;;6.95;3.03;;;;;;;21.64;75.57;99439.94;10456129;28;20091;-69
2023/06/27 04:20:27;;;;;;;10.20;3.30;;;;;;;21.50;76.22;99478.50;10435186;28;20065;-69
2023/06/27 04:25:31;;;;;;;14.13;3.33;;;;;;;21.35;77.80;99528.63;10455194;28;20049;-70
2023/06/27 04:30:32;;;;;;;25.95;3.65;;;;;;;21.29;78.63;99608.00;10451371;28;20061;-70
2023/06/27 04:35:33;;;;;;;7.43;3.83;;;;;;;21.11;80.56;99613.75;10454268;28;20132;-70
2023/06/27 04:40:33;;;;;;;9.18;3.38;;;;;;;20.48;80.88;99535.88;10455381;28;20093;-71
2023/06/27 04:45:34;;;;;;;6.55;3.08;;;;;;;20.35;80.25;99576.72;10436017;28;20041;-70
2023/06/27 04:50:35;;;;;;;8.55;3.53;;;;;;;20.55;79.33;99610.44;10452950;28;20132;-69
2023/06/27 04:55:36;;;;;;;5.68;3.25;;;;;;;20.64;78.86;99603.53;10452613;28;20056;-69
2023/06/27 05:00:37;;;;;;;6.32;3.70;;;;;;;20.51;79.48;99565.03;10454530;28;20041;-68
2023/06/27 05:05:38;;;;;;;7.78;3.70;;;;;;;20.28;80.85;99541.03;10454164;28;20497;-67
2023/06/27 05:10:38;;;;;;;5.85;3.45;;;;;;;20.06;81.54;99549.94;10454667;28;20474;-68
2023/06/27 05:15:39;;;;;;;14.50;3.97;;;;;;;19.90;83.60;99550.81;10453861;28;20083;-68
2023/06/27 05:20:41;;;;;;;11.30;4.30;;;;;;;19.21;86.23;99470.31;10454071;28;20570;-68
2023/06/27 05:25:41;;;;;;;7.53;4.30;;;;;;;19.28;88.78;99538.25;10453821;28;20489;-67
2023/06/27 05:30:42;;;;;;;7.25;4.40;;;;;;;19.19;90.49;99574.72;10454679;28;20060;-65
2023/06/27 05:35:43;;;;;;;20.95;4.70;;;;;;;19.23;91.68;99596.59;10454675;28;20049;-64
2023/06/27 05:40:44;;;;;;;9.90;4.97;;;;;;;19.23;92.68;99604.66;10454368;28;20037;-68
2023/06/27 05:45:45;;;;;;;8.85;4.13;;;;;;;19.04;93.43;99583.34;10454019;28;20040;-65
2023/06/27 05:50:45;;;;;;;7.57;4.28;;;;;;;18.69;93.02;99538.53;10453210;28;20066;-64
2023/06/27 05:55:46;;;;;;;7.82;5.10;;;;;;;19.40;94.10;99651.28;10453322;28;20504;-64
2023/06/27 06:00:47;;;;;;;11.30;5.88;;;;;;;19.47;95.66;99649.25;10453091;28;20094;-64
2023/06/27 06:05:47;;;;;;;11.18;5.60;;;;;;;19.46;96.48;99636.84;10436131;28;20037;-63
2023/06/27 06:10:50;;;;;;;8.02;4.40;;;;;;;18.66;94.50;99498.66;10452942;28;20040;-65
2023/06/27 06:15:51;;;;;;;8.40;5.15;;;;;;;19.37;94.33;99611.38;10452938;28;20123;-64
2023/06/27 06:20:51;;;;;;;7.35;4.80;;;;;;;18.96;94.83;99526.41;10452739;28;20047;-65
2023/06/27 06:25:52;;;;;;;9.35;4.95;;;;;;;18.95;95.92;99512.13;10454448;28;20036;-64
2023/06/27 06:30:53;;;;;;;6.97;5.10;;;;;;;19.54;96.99;99587.97;10452949;28;20152;-65
2023/06/27 06:35:54;;;;;;;8.20;5.55;;;;;;;19.65;98.24;99572.78;10459612;28;20488;-65
2023/06/27 06:40:54;;;;;;;14.13;5.78;;;;;;;19.59;99.08;99530.63;10457295;28;20500;-65
2023/06/27 06:45:55;;;;;;;11.98;5.32;;;;;;;19.33;99.40;99486.38;10458451;28;20033;-65
2023/06/27 06:50:56;;;;;;;11.10;5.70;;;;;;;19.79;99.98;99530.97;10457828;28;20407;-65
2023/06/27 06:55:57;;;;;;;11.57;5.22;;;;;;;20.05;100.00;99534.81;10457986;28;20037;-66
2023/06/27 07:00:58;;;;;;;9.45;5.72;;;;;;;20.30;100.00;99569.38;10457346;28;20083;-65
2023/06/27 07:05:59;;;;;;;9.27;5.47;;;;;;;20.41;100.00;99556.03;10457776;28;20048;-67
2023/06/27 07:10:59;;;;;;;6.88;5.03;;;;;;;20.16;100.00;99516.06;10458217;28;20052;-66
2023/06/27 07:16:00;;;;;;;7.10;4.82;;;;;;;20.49;100.00;99542.91;10457619;28;20127;-66
2023/06/27 07:21:01;;;;;;;8.60;4.93;;;;;;;20.63;100.00;99531.75;10458467;28;20045;-65
2023/06/27 07:26:03;;;;;;;7.70;5.13;;;;;;;20.49;100.00;99523.19;10458093;28;20037;-66
2023/06/27 07:31:03;;;;;;;8.77;5.75;;;;;;;20.57;100.00;99516.56;10458779;28;20097;-65
2023/06/27 07:36:04;;;;;;;8.40;5.70;;;;;;;20.63;100.00;99547.94;10457994;28;20508;-65
2023/06/27 07:41:05;;;;;;;7.78;5.93;;;;;;;20.95;100.00;99578.50;10457134;28;20048;-64
2023/06/27 07:46:06;;;;;;;22.52;15.27;;;;;;;21.34;100.00;99602.63;10457049;28;20409;-65
2023/06/27 07:51:06;;;;;;;10.77;7.10;;;;;;;21.64;100.00;99523.72;10457867;28;20040;-64
2023/06/27 07:56:07;;;;;;;9.98;6.10;;;;;;;22.63;98.42;99507.66;10457279;28;20044;-64
2023/06/27 08:01:08;;;;;;;7.82;5.57;;;;;;;23.09;96.89;99564.59;10456467;28;20071;-65
2023/06/27 08:06:09;;;;;;;9.27;4.88;;;;;;;23.26;93.80;99544.59;10456945;28;20040;-66
2023/06/27 08:11:10;;;;;;;8.48;4.75;;;;;;;23.21;91.13;99543.50;10457078;28;20071;-66
2023/06/27 08:16:11;;;;;;;25.05;11.60;;;;;;;23.53;89.99;99550.53;10456424;28;20124;-66
2023/06/27 08:21:11;;;;;;;9.63;5.90;;;;;;;23.92;89.63;99548.03;10456398;28;20044;-67
2023/06/27 08:26:15;;;;;;;8.00;5.32;;;;;;;23.76;88.46;99494.94;10456048;28;20056;-67
2023/06/27 08:31:17;;;;;;;6.00;4.72;;;;;;;24.31;85.89;99525.63;10455316;28;20061;-68
2023/06/27 08:36:17;;;;;;;6.95;4.65;;;;;;;24.22;84.56;99491.22;10455541;28;20048;-67
2023/06/27 08:41:18;;;;;;;6.90;4.95;;;;;;;24.45;82.95;99546.81;10455525;28;20051;-67
2023/06/27 08:46:22;;;;;;;5.47;4.30;;;;;;;25.04;81.68;99556.75;10456003;28;20562;-67
2023/06/27 08:51:25;;;;;;;5.75;4.28;;;;;;;25.08;79.62;99478.19;10454368;28;20645;-67
2023/06/27 08:56:27;;;;;;;5.38;4.47;;;;;;;25.36;78.94;99488.28;10455470;28;20041;-67
2023/06/27 09:01:32;;;;;;;7.07;4.40;;;;;;;25.50;77.94;99524.59;10454958;28;20037;-68
2023/06/27 09:06:33;;;;;;;7.28;4.75;;;;;;;25.37;77.59;99541.59;10433445;28;20049;-67
2023/06/27 09:11:35;;;;;;;9.65;4.57;;;;;;;25.56;76.38;99546.31;10451909;28;20053;-69
2023/06/27 09:16:36;;;;;;;8.18;4.80;;;;;;;25.71;75.33;99540.72;10452610;28;20051;-68
2023/06/27 09:21:38;;;;;;;6.28;4.25;;;;;;;25.78;72.00;99530.28;10450802;28;20043;-68
2023/06/27 09:26:39;;;;;;;6.22;4.28;;;;;;;25.47;71.47;99415.59;10451762;28;20405;-68
2023/06/27 09:31:40;;;;;;;5.95;4.20;;;;;;;26.69;71.16;99524.84;10451917;28;20068;-68
2023/06/27 09:36:41;;;;;;;6.30;4.22;;;;;;;27.05;68.72;99508.75;10450892;28;20392;-69
2023/06/27 09:41:46;;;;;;;5.68;3.95;;;;;;;26.73;66.90;99460.50;10449413;28;20447;-67
2023/06/27 09:46:48;;;;;;;5.13;3.95;;;;;;;26.50;68.16;99488.63;10451328;28;20065;-67
2023/06/27 09:51:50;;;;;;;7.43;3.83;;;;;;;26.19;68.24;99486.28;10451911;28;20041;-67
2023/06/27 09:56:52;;;;;;;10.43;3.40;;;;;;;25.92;68.54;99490.44;10450525;28;20094;-69
2023/06/27 10:01:53;;;;;;;6.45;3.42;;;;;;;25.81;68.11;99469.03;10451036;28;20037;-68
2023/06/27 10:06:54;;;;;;;7.85;3.50;;;;;;;26.39;67.26;99482.50;10456478;28;20041;-68
2023/06/27 10:11:55;;;;;;;4.75;3.55;;;;;;;26.79;65.38;99481.09;10455584;28;20052;-68
2023/06/27 10:16:56;;;;;;;8.52;3.72;;;;;;;27.10;64.37;99486.03;10453088;28;20496;-67
2023/06/27 10:22:01;;;;;;;4.20;3.05;;;;;;;27.39;59.79;99509.59;10456324;28;20041;-68
2023/06/27 10:27:02;;;;;;;5.32;3.38;;;;;;;27.77;60.92;99489.22;10453456;28;20037;-69
2023/06/27 10:32:04;;;;;;;7.07;3.10;;;;;;;27.85;60.43;99495.09;10458861;28;20436;-67
2023/06/27 10:37:05;;;;;;;5.85;2.90;;;;;;;27.78;58.56;99490.06;10460162;28;20408;-66
2023/06/27 10:42:43;;;;;;;7.15;3.00;;;;;;;27.39;56.18;99498.69;10460326;28;20048;-67
2023/06/27 10:48:03;;;;;;;14.18;3.17;;;;;;;27.27;56.75;99507.34;10459852;28;20045;-67
2023/06/27 10:53:25;;;;;;;11.48;2.65;;;;;;;27.51;56.37;99491.63;10459229;28;20528;-67
2023/06/27 10:58:44;;;;;;;15.77;3.10;;;;;;;28.07;55.47;99492.47;10459951;28;20044;-67
2023/06/27 11:03:52;;;;;;;19.95;3.08;;;;;;;28.05;54.00;99480.25;10459657;28;20040;-67
2023/06/27 11:09:14;;;;;;;19.23;3.33;;;;;;;28.29;55.18;99477.28;10459656;28;20122;-67
2023/06/27 11:14:15;;;;;;;;;;;;;;;28.78;55.00;99479.19;10456396;28;20037;-67
2023/06/27 11:19:16;;;;;;;10.15;2.92;;;;;;;28.54;53.75;99454.06;10457969;28;19999;-67
2023/06/27 11:24:17;;;;;;;9.13;3.13;;;;;;;28.22;53.08;99391.13;10457859;28;20045;-67
2023/06/27 11:29:18;;;;;;;23.35;4.63;;;;;;;28.34;53.44;99376.13;10454086;28;20061;-67
2023/06/27 11:34:19;;;;;;;17.70;3.47;;;;;;;28.73;52.42;99407.44;10457659;28;20106;-67
2023/06/27 11:39:20;;;;;;;11.23;2.80;;;;;;;29.05;51.59;99447.41;10454254;28;20083;-68
2023/06/27 11:44:40;;;;;;;27.92;3.47;;;;;;;29.15;48.63;99443.59;10454742;28;20041;-68
2023/06/27 11:49:40;;;;;;;19.10;3.00;;;;;;;28.88;51.02;99412.53;10454375;28;20128;-67
2023/06/27 11:54:50;;;;;;;15.88;3.03;;;;;;;29.19;50.44;99445.38;10455415;28;20140;-68
2023/06/27 11:59:52;;;;;;;13.25;2.50;;;;;;;28.83;49.57;99388.84;10455338;28;20044;-67
2023/06/27 12:04:56;;;;;;;14.60;3.00;;;;;;;29.40;49.49;99436.63;10453803;28;20080;-70
2023/06/27 12:10:04;;;;;;;10.57;2.75;;;;;;;29.02;46.77;99377.75;10452773;28;20045;-67
2023/06/27 12:15:43;;;;;;;11.00;3.00;;;;;;;29.76;48.55;99431.78;10453950;28;20958;-68
2023/06/27 12:20:44;;;;;;;14.60;3.00;;;;;;;29.84;48.18;99438.41;10450972;28;20094;-68
2023/06/27 12:25:46;;;;;;;14.13;2.53;;;;;;;30.01;47.50;99435.72;10456454;28;20040;-68
2023/06/27 12:30:47;;;;;;;7.65;2.50;;;;;;;29.83;47.11;99406.69;10432327;28;20053;-68
2023/06/27 12:35:48;;;;;;;14.55;2.90;;;;;;;29.49;46.25;99342.50;10454991;28;20118;-67
2023/06/27 12:40:49;;;;;;;12.57;2.97;;;;;;;30.13;47.41;99401.44;10452370;28;20044;-67
2023/06/27 12:46:21;;;;;;;12.68;2.88;;;;;;;30.20;46.22;99408.06;10455083;28;20049;-67
2023/06/27 12:51:22;;;;;;;;;;;;;;;30.37;46.44;99415.47;10455943;28;20045;-67
2023/06/27 12:56:41;;;;;;;6.10;2.60;;;;;;;30.27;46.00;99407.56;10454933;28;19920;-67
2023/06/27 13:01:55;;;;;;;6.70;2.78;;;;;;;30.19;46.06;99400.94;10455460;28;20033;-67
2023/06/27 13:06:58;;;;;;;9.73;2.78;;;;;;;30.40;43.64;99400.34;10454545;28;20100;-67
2023/06/27 13:11:59;;;;;;;13.05;3.17;;;;;;;30.57;45.10;99396.75;10454314;28;20123;-68
2023/06/27 13:17:00;;;;;;;8.85;2.65;;;;;;;30.24;45.56;99398.06;10454213;28;20036;-67
2023/06/27 13:22:02;;;;;;;9.30;3.45;;;;;;;29.48;44.55;99321.75;10454326;28;20124;-67
2023/06/27 13:27:03;;;;;;;7.88;3.65;;;;;;;29.12;46.36;99320.03;10454664;28;20045;-67
2023/06/27 13:32:04;;;;;;;12.27;3.00;;;;;;;29.29;47.56;99378.66;10454738;28;20476;-67
2023/06/27 13:37:08;;;;;;;5.85;3.10;;;;;;;28.99;47.39;99309.16;10459987;28;20401;-67
2023/06/27 13:42:09;;;;;;;10.05;2.72;;;;;;;29.54;47.27;99361.50;10463499;28;20041;-67
2023/06/27 13:47:10;;;;;;;6.47;2.70;;;;;;;29.40;45.91;99308.84;10462498;28;20072;-68
2023/06/27 13:52:29;;;;;;;9.10;2.95;;;;;;;30.11;45.26;99387.25;10462744;28;20452;-67
2023/06/27 13:57:51;;;;;;;14.23;3.42;;;;;;;29.95;45.76;99379.50;10460346;28;20041;-72
2023/06/27 14:02:52;;;;;;;15.75;2.80;;;;;;;29.74;45.35;99321.81;10457312;28;20075;-70
2023/06/27 14:08:12;;;;;;;10.32;2.78;;;;;;;30.27;44.89;99404.81;10457100;28;20135;-67
2023/06/27 14:13:12;;;;;;;10.10;2.83;;;;;;;29.80;44.79;99352.59;10457574;28;20122;-70
2023/06/27 14:18:14;;;;;;;9.85;3.17;;;;;;;30.27;44.82;99396.59;10455429;28;20071;-68
2023/06/27 14:23:16;;;;;;;8.20;2.53;;;;;;;30.34;45.00;99376.97;10438156;28;20044;-70
2023/06/27 14:28:17;;;;;;;18.52;3.10;;;;;;;30.29;45.68;99394.34;10456637;28;20147;-67
2023/06/27 14:33:21;;;;;;;10.95;2.92;;;;;;;29.72;46.79;99422.59;10455199;28;20511;-69
2023/06/27 14:38:22;;;;;;;9.75;2.83;;;;;;;29.15;48.22;99430.72;10456220;28;20037;-67
2023/06/27 14:43:23;;;;;;;10.13;3.45;;;;;;;28.70;49.25;99438.94;10460165;28;20107;-67
2023/06/27 14:48:42;;;;;;;8.75;2.70;;;;;;;28.44;50.08;99474.22;10458617;28;20047;-67
2023/06/27 14:53:43;;;;;;;7.32;2.85;;;;;;;28.10;50.48;99452.84;10458747;28;20419;-67
2023/06/27 14:58:43;;;;;;;10.65;3.03;;;;;;;27.23;52.01;99343.53;10459821;28;20037;-66
2023/06/27 15:03:44;;;;;;;17.83;3.22;;;;;;;27.70;54.57;99438.88;10441387;28;20459;-66
2023/06/27 15:08:45;;;;;;;13.32;3.30;;;;;;;27.27;55.58;99412.72;10459005;28;20048;-66
2023/06/27 15:13:46;;;;;;;7.32;2.92;;;;;;;27.52;53.86;99490.53;10458541;28;20119;-67
2023/06/27 15:19:05;;;;;;;7.82;3.13;;;;;;;27.45;54.02;99502.94;10440394;28;20049;-67
2023/06/27 15:24:07;;;;;;;9.35;3.15;;;;;;;27.11;55.41;99504.03;10459209;28;20041;-67
2023/06/27 15:29:07;;;;;;;12.05;3.50;;;;;;;26.75;56.68;99499.16;10458595;28;20459;-66
2023/06/27 15:34:08;;;;;;;5.30;3.20;;;;;;;26.91;55.91;99632.47;10458403;28;20044;-68
2023/06/27 15:39:09;;;;;;;17.30;3.58;;;;;;;25.62;59.05;99622.13;10458012;28;20048;-68
2023/06/27 15:44:10;;;;;;;13.63;4.00;;;;;;;24.00;64.78;99657.91;10457453;28;20439;-67
2023/06/27 15:49:11;;;;;;;16.83;4.30;;;;;;;22.50;69.98;99657.03;10457008;28;20416;-63
2023/06/27 15:54:13;;;;;;;13.05;4.13;;;;;;;21.60;75.61;99713.72;10457335;28;20044;-63
2023/06/27 15:59:14;;;;;;;14.03;4.53;;;;;;;21.23;80.60;99713.56;10455725;28;20048;-63
2023/06/27 16:04:15;;;;;;;10.85;3.90;;;;;;;21.19;83.71;99715.94;10455902;28;20035;-63
2023/06/27 16:09:16;;;;;;;9.25;3.28;;;;;;;21.05;85.07;99733.59;10450635;28;20051;-63
2023/06/27 16:14:17;;;;;;;14.25;4.50;;;;;;;20.70;87.60;99719.41;10438515;28;20037;-63
2023/06/27 16:19:17;;;;;;;11.88;4.55;;;;;;;20.11;89.60;99677.81;10455800;28;20463;-64
2023/06/27 16:24:18;;;;;;;10.32;4.18;;;;;;;20.33;91.79;99732.59;10455839;28;20571;-66
2023/06/27 16:29:20;;;;;;;9.27;4.85;;;;;;;20.20;93.80;99714.06;10456008;28;20057;-65
2023/06/27 16:34:21;;;;;;;6.07;4.82;;;;;;;20.46;95.01;99740.38;10455510;28;20037;-67
2023/06/27 16:39:22;;;;;;;19.02;10.93;;;;;;;20.60;95.49;99746.25;10437981;28;20041;-65
2023/06/27 16:44:24;;;;;;;13.50;8.20;;;;;;;20.79;96.40;99719.78;10454726;28;20041;-65
2023/06/27 16:49:26;;;;;;;12.05;8.02;;;;;;;20.78;97.18;99720.84;10454921;28;20516;-66
2023/06/27 16:54:27;;;;;;;11.40;6.35;;;;;;;20.97;98.83;99730.28;10452518;28;20029;-64
2023/06/27 16:59:27;;;;;;;9.40;5.90;;;;;;;20.82;100.00;99705.81;10452711;28;20182;-65
2023/06/27 17:04:28;;;;;;;9.77;5.88;;;;;;;21.11;100.00;99741.50;10449866;28;20120;-64
2023/06/27 17:09:29;;;;;;;6.97;4.78;;;;;;;21.04;100.00;99740.06;10434087;28;20436;-66
2023/06/27 17:14:30;;;;;;;10.98;5.70;;;;;;;20.58;100.00;99670.13;10452565;28;20051;-64
2023/06/27 17:19:31;;;;;;;11.77;5.90;;;;;;;20.81;100.00;99709.53;10453225;28;20485;-65
2023/06/27 17:24:31;;;;;;;10.77;5.70;;;;;;;20.70;100.00;99695.13;10452792;28;20040;-65
2023/06/27 17:29:32;;;;;;;9.40;5.70;;;;;;;20.69;100.00;99715.06;10452958;28;20126;-65
2023/06/27 17:34:35;;;;;;;16.05;6.50;;;;;;;20.71;100.00;99722.91;10449987;28;20049;-65
2023/06/27 17:39:35;;;;;;;9.77;6.57;;;;;;;20.70;100.00;99738.31;10452626;28;20041;-70
2023/06/27 17:44:36;;;;;;;12.02;6.30;;;;;;;20.16;100.00;99662.53;10449520;28;20043;-65
2023/06/27 17:49:37;;;;;;;15.88;7.45;;;;;;;20.48;100.00;99719.34;10447870;28;20420;-65
2023/06/27 17:54:38;;;;;;;13.48;7.13;;;;;;;20.64;100.00;99755.50;10432468;28;20045;-65
2023/06/27 17:59:39;;;;;;;13.10;6.97;;;;;;;20.63;100.00;99753.03;10450782;28;20051;-66
2023/06/27 18:04:39;;;;;;;13.75;6.38;;;;;;;20.52;100.00;99758.28;10451975;28;20467;-65
2023/06/27 18:09:40;;;;;;;10.18;6.00;;;;;;;20.39;100.00;99753.19;10450332;28;20106;-65
2023/06/27 18:14:41;;;;;;;11.50;6.53;;;;;;;20.13;100.00;99734.97;10448577;28;20064;-67
2023/06/27 18:19:42;;;;;;;9.82;6.15;;;;;;;19.83;100.00;99706.47;10450948;28;20037;-66
2023/06/27 18:24:43;;;;;;;10.32;6.47;;;;;;;19.86;100.00;99730.22;10458255;28;20044;-67
2023/06/27 18:29:44;;;;;;;10.82;6.80;;;;;;;20.20;100.00;99789.59;10459944;28;20063;-66
2023/06/27 18:34:45;;;;;;;9.70;6.57;;;;;;;20.10;100.00;99778.63;10459069;28;20045;-66
2023/06/27 18:39:45;;;;;;;13.40;6.63;;;;;;;20.00;100.00;99772.00;10458129;28;20041;-65
2023/06/27 18:44:46;;;;;;;12.00;7.10;;;;;;;20.02;100.00;99791.44;10458537;28;20037;-65
2023/06/27 18:49:47;;;;;;;9.13;6.07;;;;;;;20.02;100.00;99793.34;10458421;28;20473;-66
2023/06/27 18:54:48;;;;;;;9.35;6.40;;;;;;;19.96;100.00;99797.00;10456383;28;20120;-66
2023/06/27 18:59:49;;;;;;;15.57;7.00;;;;;;;19.93;100.00;99795.59;10458961;28;20047;-65
2023/06/27 19:04:50;;;;;;;11.57;6.32;;;;;;;19.87;100.00;99801.97;10459226;28;20041;-69
2023/06/27 19:09:51;;;;;;;9.15;5.57;;;;;;;19.93;100.00;99802.88;10458884;28;20051;-66
2023/06/27 19:14:51;;;;;;;10.98;6.13;;;;;;;19.90;100.00;99798.78;10441208;28;20404;-66
2023/06/27 19:19:52;;;;;;;12.68;6.80;;;;;;;19.89;100.00;99789.03;10458382;28;20095;-66
2023/06/27 19:24:54;;;;;;;10.73;6.25;;;;;;;19.90;100.00;99801.47;10458019;28;20037;-68
2023/06/27 19:29:55;;;;;;;7.18;5.07;;;;;;;19.69;100.00;99786.81;10457706;28;20526;-65
2023/06/27 19:34:56;;;;;;;13.13;6.07;;;;;;;19.73;100.00;99797.94;10457542;28;20119;-65
2023/06/27 19:39:56;;;;;;;14.20;6.15;;;;;;;19.81;100.00;99816.41;10457656;28;20124;-65
2023/06/27 19:44:57;;;;;;;10.05;5.53;;;;;;;19.32;100.00;99748.63;10440091;28;20037;-66
2023/06/27 19:49:58;;;;;;;14.68;6.03;;;;;;;19.64;100.00;99810.94;10458073;28;20049;-65
2023/06/27 19:54:59;;;;;;;8.70;5.85;;;;;;;19.47;100.00;99778.53;10456863;28;20044;-65
2023/06/27 20:00:00;;;;;;;7.25;5.53;;;;;;;19.57;100.00;99799.50;10439713;28;20037;-67
2023/06/27 20:05:00;;;;;;;7.88;5.97;;;;;;;19.61;100.00;99823.00;10457382;28;20036;-65
2023/06/27 20:10:14;;;;;;;17.08;6.57;;;;;;;19.65;100.00;99822.56;10456572;28;20489;-65
2023/06/27 20:15:15;;;;;;;10.05;6.35;;;;;;;19.53;100.00;99819.88;10439482;28;20121;-65
2023/06/27 20:20:16;;;;;;;9.50;6.10;;;;;;;19.69;100.00;99829.94;10457584;28;20041;-65
2023/06/27 20:25:17;;;;;;;14.10;6.90;;;;;;;19.49;100.00;99781.00;10455631;28;20041;-65
2023/06/27 20:30:18;;;;;;;13.65;6.53;;;;;;;19.92;100.00;99839.78;10438530;28;20389;-65
2023/06/27 20:35:19;;;;;;;8.40;6.90;;;;;;;19.62;100.00;99775.31;10456952;28;20040;-65
2023/06/27 20:40:20;;;;;;;10.75;7.38;;;;;;;19.94;100.00;99826.06;10455773;28;20045;-65
2023/06/27 20:45:21;;;;;;;11.68;6.93;;;;;;;20.00;100.00;99835.88;10454234;28;20073;-65
2023/06/27 20:50:21;;;;;;;12.50;7.82;;;;;;;19.54;100.00;99770.34;10455729;28;20069;-65
2023/06/27 20:55:22;;;;;;;18.95;7.40;;;;;;;19.84;100.00;99830.22;10436837;28;20051;-67
2023/06/27 21:00:23;;;;;;;13.27;6.50;;;;;;;19.82;100.00;99826.13;10453749;28;20045;-65
2023/06/27 21:05:24;;;;;;;10.05;6.22;;;;;;;19.24;100.00;99743.66;10454877;28;20049;-65
2023/06/27 21:10:24;;;;;;;19.65;7.50;;;;;;;19.34;100.00;99757.28;10454143;28;20049;-66
2023/06/27 21:15:25;;;;;;;17.48;7.43;;;;;;;19.70;100.00;99822.66;10453984;28;20511;-65
2023/06/27 21:20:26;;;;;;;11.77;7.25;;;;;;;19.26;100.00;99747.69;10436586;28;20119;-65
2023/06/27 21:25:27;;;;;;;11.13;6.45;;;;;;;19.70;100.00;99826.16;10454503;28;20041;-67
2023/06/27 21:30:29;;;;;;;10.70;7.63;;;;;;;19.61;100.00;99824.88;10453566;28;20065;-65
2023/06/27 21:35:29;;;;;;;7.93;6.95;;;;;;;19.38;100.00;99796.16;10454337;28;20398;-66
2023/06/27 21:40:30;;;;;;;11.27;6.93;;;;;;;19.43;100.00;99815.09;10455027;28;20041;-65
2023/06/27 21:45:31;;;;;;;8.68;6.90;;;;;;;19.44;100.00;99832.09;10453973;28;20049;-65
2023/06/27 21:50:32;;;;;;;11.98;7.07;;;;;;;19.41;100.00;99833.38;10453749;28;20496;-65
2023/06/27 21:55:33;;;;;;;12.98;7.07;;;;;;;19.43;100.00;99847.44;10455801;28;20048;-66
2023/06/27 22:00:34;;;;;;;13.57;7.07;;;;;;;19.35;100.00;99862.09;10462919;28;20429;-65
2023/06/27 22:05:35;;;;;;;16.95;7.03;;;;;;;19.23;100.00;99852.38;10461739;28;20039;-65
2023/06/27 22:10:35;;;;;;;11.95;7.20;;;;;;;19.25;100.00;99855.66;10461536;28;20063;-65
2023/06/27 22:15:36;;;;;;;14.20;7.53;;;;;;;18.68;100.00;99781.72;10461429;28;20060;-65
2023/06/27 22:20:37;;;;;;;14.48;6.80;;;;;;;19.16;100.00;99861.41;10442943;28;20041;-69
2023/06/27 22:25:38;;;;;;;9.88;6.85;;;;;;;19.10;100.00;99867.75;10461780;28;20053;-65
2023/06/27 22:30:39;;;;;;;8.60;7.07;;;;;;;18.94;100.00;99849.63;10461099;28;20468;-65
2023/06/27 22:35:40;;;;;;;14.13;7.30;;;;;;;18.32;100.00;99760.47;10460152;28;20041;-65
2023/06/27 22:40:40;;;;;;;13.18;7.03;;;;;;;18.88;100.00;99877.47;10460762;28;20511;-65
2023/06/27 22:45:41;;;;;;;12.80;7.15;;;;;;;18.85;100.00;99875.25;10460474;28;20115;-65
2023/06/27 22:50:42;;;;;;;13.60;7.25;;;;;;;18.84;100.00;99885.19;10459378;28;20045;-65
2023/06/27 22:55:43;;;;;;;12.95;7.00;;;;;;;18.36;100.00;99818.09;10459750;28;20045;-65
2023/06/27 23:00:43;;;;;;;10.65;7.68;;;;;;;18.69;100.00;99874.84;10459912;28;20119;-66
2023/06/27 23:05:44;;;;;;;10.38;7.40;;;;;;;18.83;100.00;99890.81;10459838;28;20044;-65
2023/06/27 23:10:45;;;;;;;14.85;6.75;;;;;;;18.56;100.00;99853.56;10458071;28;20461;-65
2023/06/27 23:15:46;;;;;;;14.10;6.25;;;;;;;18.71;100.00;99901.53;10459068;28;20036;-65